sensor_id;sensor_type;location;lat;lon;timestamp;temperature;humidity
12025;DHT22;6073;53.230;10.444;2023-05-07T00:01:24;8.90;99.90
12025;DHT22;6073;53.230;10.444;2023-05-07T00:03:50;8.90;99.90
12025;DHT22;6073;53.230;10.444;2023-05-07T00:06:15;8.90;99.90
12025;DHT22;6073;53.230;10.444;2023-05-07T00:08:41;8.90;99.90
12025;DHT22;6073;53.230;10.444;2023-05-07T00:11:06;8.90;99.90
12025;DHT22;6073;53.230;10.444;2023-05-07T00:13:32;8.90;99.90
12025;DHT22;6073;53.230;10.444;2023-05-07T00:16:04;8.80;99.90
12025;DHT22;6073;53.230;10.444;2023-05-07T00:18:30;8.90;99.90
12025;DHT22;6073;53.230;10.444;2023-05-07T00:20:55;9.00;99.90
12025;DHT22;6073;53.230;10.444;2023-05-07T00:23:22;9.00;99.90
12025;DHT22;6073;53.230;10.444;2023-05-07T00:25:47;8.90;99.90
12025;DHT22;6073;53.230;10.444;2023-05-07T00:28:13;8.90;99.90
12025;DHT22;6073;53.230;10.444;2023-05-07T00:30:38;9.00;99.90
12025;DHT22;6073;53.230;10.444;2023-05-07T00:33:04;9.00;99.90
12025;DHT22;6073;53.230;10.444;2023-05-07T00:35:30;9.00;99.90
12025;DHT22;6073;53.230;10.444;2023-05-07T00:37:56;8.90;99.90
12025;DHT22;6073;53.230;10.444;2023-05-07T00:40:21;8.90;99.90
12025;DHT22;6073;53.230;10.444;2023-05-07T00:42:47;9.00;99.90
12025;DHT22;6073;53.230;10.444;2023-05-07T00:45:14;9.00;99.90
12025;DHT22;6073;53.230;10.444;2023-05-07T00:47:40;9.00;99.90
12025;DHT22;6073;53.230;10.444;2023-05-07T00:50:06;9.00;99.90
12025;DHT22;6073;53.230;10.444;2023-05-07T00:52:33;8.90;99.90
12025;DHT22;6073;53.230;10.444;2023-05-07T00:55:02;8.90;99.90
12025;DHT22;6073;53.230;10.444;2023-05-07T00:57:29;8.90;99.90
12025;DHT22;6073;53.230;10.444;2023-05-07T00:59:57;9.00;99.90
12025;DHT22;6073;53.230;10.444;2023-05-07T01:02:23;9.00;99.90
12025;DHT22;6073;53.230;10.444;2023-05-07T01:04:49;9.00;99.90
12025;DHT22;6073;53.230;10.444;2023-05-07T01:07:14;9.00;99.90
12025;DHT22;6073;53.230;10.444;2023-05-07T01:09:40;9.00;99.90
12025;DHT22;6073;53.230;10.444;2023-05-07T01:12:06;9.00;99.90
12025;DHT22;6073;53.230;10.444;2023-05-07T01:14:32;9.00;99.90
12025;DHT22;6073;53.230;10.444;2023-05-07T01:16:58;9.00;99.90
12025;DHT22;6073;53.230;10.444;2023-05-07T01:19:24;9.00;99.90
12025;DHT22;6073;53.230;10.444;2023-05-07T01:21:51;9.00;99.90
12025;DHT22;6073;53.230;10.444;2023-05-07T01:24:18;9.00;99.90
12025;DHT22;6073;53.230;10.444;2023-05-07T01:26:44;9.00;99.90
12025;DHT22;6073;53.230;10.444;2023-05-07T01:29:10;8.90;99.90
12025;DHT22;6073;53.230;10.444;2023-05-07T01:31:36;9.00;99.90
12025;DHT22;6073;53.230;10.444;2023-05-07T01:34:03;8.90;99.90
12025;DHT22;6073;53.230;10.444;2023-05-07T01:36:30;9.00;99.90
12025;DHT22;6073;53.230;10.444;2023-05-07T01:38:57;8.90;99.90
12025;DHT22;6073;53.230;10.444;2023-05-07T01:41:24;9.00;99.90
12025;DHT22;6073;53.230;10.444;2023-05-07T01:43:51;8.90;99.90
12025;DHT22;6073;53.230;10.444;2023-05-07T01:46:17;9.00;99.90
12025;DHT22;6073;53.230;10.444;2023-05-07T01:48:45;9.00;99.90
12025;DHT22;6073;53.230;10.444;2023-05-07T01:51:11;9.00;99.90
12025;DHT22;6073;53.230;10.444;2023-05-07T01:53:38;9.00;99.90
12025;DHT22;6073;53.230;10.444;2023-05-07T01:56:04;9.00;99.90
12025;DHT22;6073;53.230;10.444;2023-05-07T01:58:29;9.00;99.90
12025;DHT22;6073;53.230;10.444;2023-05-07T02:00:55;8.90;99.90
12025;DHT22;6073;53.230;10.444;2023-05-07T02:03:20;9.00;99.90
12025;DHT22;6073;53.230;10.444;2023-05-07T02:05:46;8.90;99.90
12025;DHT22;6073;53.230;10.444;2023-05-07T02:08:11;8.90;99.90
12025;DHT22;6073;53.230;10.444;2023-05-07T02:10:37;8.80;99.90
12025;DHT22;6073;53.230;10.444;2023-05-07T02:13:02;8.90;99.90
12025;DHT22;6073;53.230;10.444;2023-05-07T02:15:28;8.90;99.90
12025;DHT22;6073;53.230;10.444;2023-05-07T02:18:08;8.90;99.90
12025;DHT22;6073;53.230;10.444;2023-05-07T02:20:34;8.90;99.90
12025;DHT22;6073;53.230;10.444;2023-05-07T02:23:00;8.90;99.90
12025;DHT22;6073;53.230;10.444;2023-05-07T02:25:26;8.90;99.90
12025;DHT22;6073;53.230;10.444;2023-05-07T02:27:51;8.90;99.90
12025;DHT22;6073;53.230;10.444;2023-05-07T02:30:17;8.90;99.90
12025;DHT22;6073;53.230;10.444;2023-05-07T02:32:42;8.90;99.90
12025;DHT22;6073;53.230;10.444;2023-05-07T02:35:08;8.80;99.90
12025;DHT22;6073;53.230;10.444;2023-05-07T02:37:34;8.90;99.90
12025;DHT22;6073;53.230;10.444;2023-05-07T02:39:59;8.80;99.90
12025;DHT22;6073;53.230;10.444;2023-05-07T02:42:25;8.80;99.90
12025;DHT22;6073;53.230;10.444;2023-05-07T02:44:50;8.90;99.90
12025;DHT22;6073;53.230;10.444;2023-05-07T02:47:16;8.80;99.90
12025;DHT22;6073;53.230;10.444;2023-05-07T02:49:41;8.90;99.90
12025;DHT22;6073;53.230;10.444;2023-05-07T02:52:07;8.90;99.90
12025;DHT22;6073;53.230;10.444;2023-05-07T02:54:33;8.80;99.90
12025;DHT22;6073;53.230;10.444;2023-05-07T02:56:58;8.80;99.90
12025;DHT22;6073;53.230;10.444;2023-05-07T02:59:26;8.80;99.90
12025;DHT22;6073;53.230;10.444;2023-05-07T03:01:51;8.80;99.90
12025;DHT22;6073;53.230;10.444;2023-05-07T03:04:17;8.90;99.90
12025;DHT22;6073;53.230;10.444;2023-05-07T03:06:43;8.80;99.90
12025;DHT22;6073;53.230;10.444;2023-05-07T03:09:08;8.80;99.90
12025;DHT22;6073;53.230;10.444;2023-05-07T03:11:34;8.80;99.90
12025;DHT22;6073;53.230;10.444;2023-05-07T03:14:01;8.80;99.90
12025;DHT22;6073;53.230;10.444;2023-05-07T03:16:26;8.90;99.90
12025;DHT22;6073;53.230;10.444;2023-05-07T03:18:52;8.90;99.90
12025;DHT22;6073;53.230;10.444;2023-05-07T03:21:17;8.90;99.90
12025;DHT22;6073;53.230;10.444;2023-05-07T03:23:43;8.90;99.90
12025;DHT22;6073;53.230;10.444;2023-05-07T03:26:09;8.90;99.90
12025;DHT22;6073;53.230;10.444;2023-05-07T03:28:34;8.90;99.90
12025;DHT22;6073;53.230;10.444;2023-05-07T03:31:00;8.90;99.90
12025;DHT22;6073;53.230;10.444;2023-05-07T03:33:26;8.90;99.90
12025;DHT22;6073;53.230;10.444;2023-05-07T03:35:52;9.00;99.90
12025;DHT22;6073;53.230;10.444;2023-05-07T03:38:18;9.00;99.90
12025;DHT22;6073;53.230;10.444;2023-05-07T03:40:43;9.00;99.90
12025;DHT22;6073;53.230;10.444;2023-05-07T03:43:09;9.00;99.90
12025;DHT22;6073;53.230;10.444;2023-05-07T03:45:35;9.00;99.90
12025;DHT22;6073;53.230;10.444;2023-05-07T03:48:01;8.90;99.90
12025;DHT22;6073;53.230;10.444;2023-05-07T03:50:26;8.90;99.90
12025;DHT22;6073;53.230;10.444;2023-05-07T03:52:52;8.90;99.90
12025;DHT22;6073;53.230;10.444;2023-05-07T03:55:17;9.00;99.90
12025;DHT22;6073;53.230;10.444;2023-05-07T03:57:43;9.00;99.90
12025;DHT22;6073;53.230;10.444;2023-05-07T04:00:09;9.00;99.90
12025;DHT22;6073;53.230;10.444;2023-05-07T04:02:35;9.00;99.90
12025;DHT22;6073;53.230;10.444;2023-05-07T04:05:00;9.00;99.90
12025;DHT22;6073;53.230;10.444;2023-05-07T04:07:26;9.00;99.90
12025;DHT22;6073;53.230;10.444;2023-05-07T04:09:52;9.00;99.90
12025;DHT22;6073;53.230;10.444;2023-05-07T04:12:17;9.00;99.90
12025;DHT22;6073;53.230;10.444;2023-05-07T04:14:43;9.00;99.90
12025;DHT22;6073;53.230;10.444;2023-05-07T04:17:08;9.00;99.90
12025;DHT22;6073;53.230;10.444;2023-05-07T04:19:36;9.00;99.90
12025;DHT22;6073;53.230;10.444;2023-05-07T04:22:01;9.00;99.90
12025;DHT22;6073;53.230;10.444;2023-05-07T04:24:27;9.00;99.90
12025;DHT22;6073;53.230;10.444;2023-05-07T04:26:52;9.00;99.90
12025;DHT22;6073;53.230;10.444;2023-05-07T04:29:18;9.00;99.90
12025;DHT22;6073;53.230;10.444;2023-05-07T04:31:44;9.00;99.90
12025;DHT22;6073;53.230;10.444;2023-05-07T04:34:11;9.10;99.90
12025;DHT22;6073;53.230;10.444;2023-05-07T04:39:07;9.00;99.90
12025;DHT22;6073;53.230;10.444;2023-05-07T04:41:35;9.10;99.90
12025;DHT22;6073;53.230;10.444;2023-05-07T04:44:01;9.10;99.90
12025;DHT22;6073;53.230;10.444;2023-05-07T04:46:27;9.10;99.90
12025;DHT22;6073;53.230;10.444;2023-05-07T04:48:52;9.10;99.90
12025;DHT22;6073;53.230;10.444;2023-05-07T04:51:18;9.10;99.90
12025;DHT22;6073;53.230;10.444;2023-05-07T04:53:43;9.20;99.90
12025;DHT22;6073;53.230;10.444;2023-05-07T04:56:09;9.20;99.90
12025;DHT22;6073;53.230;10.444;2023-05-07T04:58:34;9.20;99.90
12025;DHT22;6073;53.230;10.444;2023-05-07T05:01:00;9.20;99.90
12025;DHT22;6073;53.230;10.444;2023-05-07T05:03:26;9.20;99.90
12025;DHT22;6073;53.230;10.444;2023-05-07T05:05:52;9.20;99.90
12025;DHT22;6073;53.230;10.444;2023-05-07T05:08:18;9.20;99.90
12025;DHT22;6073;53.230;10.444;2023-05-07T05:10:44;9.20;99.90
12025;DHT22;6073;53.230;10.444;2023-05-07T05:13:10;9.30;99.90
12025;DHT22;6073;53.230;10.444;2023-05-07T05:15:38;9.30;99.90
12025;DHT22;6073;53.230;10.444;2023-05-07T05:18:04;9.30;99.90
12025;DHT22;6073;53.230;10.444;2023-05-07T05:20:29;9.30;99.90
12025;DHT22;6073;53.230;10.444;2023-05-07T05:22:55;9.30;99.90
12025;DHT22;6073;53.230;10.444;2023-05-07T05:25:21;9.30;99.90
12025;DHT22;6073;53.230;10.444;2023-05-07T05:27:46;9.30;99.90
12025;DHT22;6073;53.230;10.444;2023-05-07T05:30:12;9.30;99.90
12025;DHT22;6073;53.230;10.444;2023-05-07T05:32:38;9.30;99.90
12025;DHT22;6073;53.230;10.444;2023-05-07T05:35:04;9.30;99.90
12025;DHT22;6073;53.230;10.444;2023-05-07T05:37:30;9.40;99.90
12025;DHT22;6073;53.230;10.444;2023-05-07T05:39:56;9.40;99.90
12025;DHT22;6073;53.230;10.444;2023-05-07T05:42:23;9.40;99.90
12025;DHT22;6073;53.230;10.444;2023-05-07T05:44:49;9.50;99.90
12025;DHT22;6073;53.230;10.444;2023-05-07T05:47:14;9.50;99.90
12025;DHT22;6073;53.230;10.444;2023-05-07T05:49:40;9.50;99.90
12025;DHT22;6073;53.230;10.444;2023-05-07T05:52:06;9.50;99.90
12025;DHT22;6073;53.230;10.444;2023-05-07T05:54:31;9.50;99.90
12025;DHT22;6073;53.230;10.444;2023-05-07T05:56:57;9.50;99.90
12025;DHT22;6073;53.230;10.444;2023-05-07T05:59:23;9.50;99.90
12025;DHT22;6073;53.230;10.444;2023-05-07T06:01:48;9.50;99.90
12025;DHT22;6073;53.230;10.444;2023-05-07T06:04:14;9.50;99.90
12025;DHT22;6073;53.230;10.444;2023-05-07T06:06:40;9.50;99.90
12025;DHT22;6073;53.230;10.444;2023-05-07T06:09:05;9.60;99.90
12025;DHT22;6073;53.230;10.444;2023-05-07T06:11:31;9.60;99.90
12025;DHT22;6073;53.230;10.444;2023-05-07T06:13:57;9.60;99.90
12025;DHT22;6073;53.230;10.444;2023-05-07T06:16:24;9.60;99.90
12025;DHT22;6073;53.230;10.444;2023-05-07T06:18:50;9.70;99.90
12025;DHT22;6073;53.230;10.444;2023-05-07T06:21:16;9.70;99.90
12025;DHT22;6073;53.230;10.444;2023-05-07T06:23:41;9.80;99.90
12025;DHT22;6073;53.230;10.444;2023-05-07T06:26:07;9.80;99.90
12025;DHT22;6073;53.230;10.444;2023-05-07T06:28:32;9.80;99.90
12025;DHT22;6073;53.230;10.444;2023-05-07T06:31:12;9.80;99.90
12025;DHT22;6073;53.230;10.444;2023-05-07T06:33:37;9.80;99.90
12025;DHT22;6073;53.230;10.444;2023-05-07T06:36:03;9.80;99.90
12025;DHT22;6073;53.230;10.444;2023-05-07T06:38:29;9.80;99.90
12025;DHT22;6073;53.230;10.444;2023-05-07T06:40:55;9.80;99.90
12025;DHT22;6073;53.230;10.444;2023-05-07T06:43:22;9.90;99.90
12025;DHT22;6073;53.230;10.444;2023-05-07T06:45:48;9.90;99.90
12025;DHT22;6073;53.230;10.444;2023-05-07T06:48:13;9.90;99.90
12025;DHT22;6073;53.230;10.444;2023-05-07T06:50:39;9.90;99.90
12025;DHT22;6073;53.230;10.444;2023-05-07T06:53:05;9.90;99.90
12025;DHT22;6073;53.230;10.444;2023-05-07T06:55:30;10.00;99.90
12025;DHT22;6073;53.230;10.444;2023-05-07T06:57:56;10.00;99.90
12025;DHT22;6073;53.230;10.444;2023-05-07T07:00:23;10.00;99.90
12025;DHT22;6073;53.230;10.444;2023-05-07T07:02:49;10.00;99.90
12025;DHT22;6073;53.230;10.444;2023-05-07T07:05:14;10.10;99.90
12025;DHT22;6073;53.230;10.444;2023-05-07T07:07:40;10.10;99.90
12025;DHT22;6073;53.230;10.444;2023-05-07T07:10:06;10.20;99.90
12025;DHT22;6073;53.230;10.444;2023-05-07T07:12:32;10.20;99.90
12025;DHT22;6073;53.230;10.444;2023-05-07T07:14:58;10.20;99.90
12025;DHT22;6073;53.230;10.444;2023-05-07T07:17:23;10.20;99.90
12025;DHT22;6073;53.230;10.444;2023-05-07T07:19:49;10.30;99.90
12025;DHT22;6073;53.230;10.444;2023-05-07T07:22:15;10.30;99.90
12025;DHT22;6073;53.230;10.444;2023-05-07T07:24:40;10.30;99.90
12025;DHT22;6073;53.230;10.444;2023-05-07T07:27:06;10.30;99.90
12025;DHT22;6073;53.230;10.444;2023-05-07T07:29:31;10.40;99.90
12025;DHT22;6073;53.230;10.444;2023-05-07T07:31:57;10.50;99.90
12025;DHT22;6073;53.230;10.444;2023-05-07T07:34:22;10.60;99.90
12025;DHT22;6073;53.230;10.444;2023-05-07T07:36:48;10.60;99.90
12025;DHT22;6073;53.230;10.444;2023-05-07T07:39:14;10.60;99.90
12025;DHT22;6073;53.230;10.444;2023-05-07T07:41:39;10.80;99.90
12025;DHT22;6073;53.230;10.444;2023-05-07T07:44:05;10.80;99.90
12025;DHT22;6073;53.230;10.444;2023-05-07T07:46:33;10.80;99.90
12025;DHT22;6073;53.230;10.444;2023-05-07T07:48:58;10.80;99.90
12025;DHT22;6073;53.230;10.444;2023-05-07T07:51:25;10.80;99.90
12025;DHT22;6073;53.230;10.444;2023-05-07T07:53:51;10.80;99.90
12025;DHT22;6073;53.230;10.444;2023-05-07T07:56:17;10.80;99.90
12025;DHT22;6073;53.230;10.444;2023-05-07T07:58:43;10.90;99.90
12025;DHT22;6073;53.230;10.444;2023-05-07T08:01:08;11.00;99.90
12025;DHT22;6073;53.230;10.444;2023-05-07T08:03:34;11.00;99.90
12025;DHT22;6073;53.230;10.444;2023-05-07T08:06:00;10.90;99.90
12025;DHT22;6073;53.230;10.444;2023-05-07T08:08:26;10.90;99.90
12025;DHT22;6073;53.230;10.444;2023-05-07T08:10:51;10.80;99.90
12025;DHT22;6073;53.230;10.444;2023-05-07T08:13:18;10.80;99.90
12025;DHT22;6073;53.230;10.444;2023-05-07T08:15:43;10.80;99.90
12025;DHT22;6073;53.230;10.444;2023-05-07T08:18:09;10.80;99.90
12025;DHT22;6073;53.230;10.444;2023-05-07T08:20:35;10.80;99.90
12025;DHT22;6073;53.230;10.444;2023-05-07T08:23:05;10.90;99.90
12025;DHT22;6073;53.230;10.444;2023-05-07T08:25:33;10.90;99.90
12025;DHT22;6073;53.230;10.444;2023-05-07T08:27:59;11.00;99.90
12025;DHT22;6073;53.230;10.444;2023-05-07T08:30:25;11.00;99.90
12025;DHT22;6073;53.230;10.444;2023-05-07T08:32:50;11.00;99.90
12025;DHT22;6073;53.230;10.444;2023-05-07T08:35:16;11.10;99.90
12025;DHT22;6073;53.230;10.444;2023-05-07T08:37:42;11.20;99.90
12025;DHT22;6073;53.230;10.444;2023-05-07T08:40:09;11.20;99.90
12025;DHT22;6073;53.230;10.444;2023-05-07T08:42:36;11.20;99.90
12025;DHT22;6073;53.230;10.444;2023-05-07T08:45:09;11.20;99.90
12025;DHT22;6073;53.230;10.444;2023-05-07T08:47:51;11.20;99.90
12025;DHT22;6073;53.230;10.444;2023-05-07T08:50:17;11.10;99.90
12025;DHT22;6073;53.230;10.444;2023-05-07T08:52:43;11.20;99.90
12025;DHT22;6073;53.230;10.444;2023-05-07T08:55:09;11.20;99.90
12025;DHT22;6073;53.230;10.444;2023-05-07T08:57:35;11.30;99.90
12025;DHT22;6073;53.230;10.444;2023-05-07T09:00:02;11.40;99.90
12025;DHT22;6073;53.230;10.444;2023-05-07T09:02:28;11.60;99.90
12025;DHT22;6073;53.230;10.444;2023-05-07T09:04:54;11.80;99.90
12025;DHT22;6073;53.230;10.444;2023-05-07T09:07:20;11.70;99.90
12025;DHT22;6073;53.230;10.444;2023-05-07T09:09:46;11.70;99.90
12025;DHT22;6073;53.230;10.444;2023-05-07T09:12:12;11.80;99.90
12025;DHT22;6073;53.230;10.444;2023-05-07T09:14:38;11.80;99.90
12025;DHT22;6073;53.230;10.444;2023-05-07T09:17:04;12.00;99.90
12025;DHT22;6073;53.230;10.444;2023-05-07T09:19:30;12.00;99.90
12025;DHT22;6073;53.230;10.444;2023-05-07T09:22:00;12.00;99.90
12025;DHT22;6073;53.230;10.444;2023-05-07T09:24:26;11.90;99.90
12025;DHT22;6073;53.230;10.444;2023-05-07T09:26:54;12.00;99.90
12025;DHT22;6073;53.230;10.444;2023-05-07T09:29:21;12.20;99.90
12025;DHT22;6073;53.230;10.444;2023-05-07T09:31:46;12.10;99.90
12025;DHT22;6073;53.230;10.444;2023-05-07T09:34:12;12.10;99.90
12025;DHT22;6073;53.230;10.444;2023-05-07T09:36:37;12.00;99.90
12025;DHT22;6073;53.230;10.444;2023-05-07T09:39:03;12.00;99.90
12025;DHT22;6073;53.230;10.444;2023-05-07T09:41:30;12.10;99.90
12025;DHT22;6073;53.230;10.444;2023-05-07T09:43:57;12.10;99.90
12025;DHT22;6073;53.230;10.444;2023-05-07T09:46:30;12.20;99.90
12025;DHT22;6073;53.230;10.444;2023-05-07T09:48:57;12.30;99.90
12025;DHT22;6073;53.230;10.444;2023-05-07T09:51:47;12.50;99.90
12025;DHT22;6073;53.230;10.444;2023-05-07T09:54:14;12.50;99.90
12025;DHT22;6073;53.230;10.444;2023-05-07T09:56:40;12.50;99.90
12025;DHT22;6073;53.230;10.444;2023-05-07T09:59:07;12.40;99.90
12025;DHT22;6073;53.230;10.444;2023-05-07T10:01:36;12.50;99.90
12025;DHT22;6073;53.230;10.444;2023-05-07T10:04:02;12.50;99.90
12025;DHT22;6073;53.230;10.444;2023-05-07T10:06:34;12.70;99.90
12025;DHT22;6073;53.230;10.444;2023-05-07T10:09:01;12.70;99.90
12025;DHT22;6073;53.230;10.444;2023-05-07T10:11:26;12.70;99.90
12025;DHT22;6073;53.230;10.444;2023-05-07T10:13:52;12.60;99.90
12025;DHT22;6073;53.230;10.444;2023-05-07T10:16:19;12.50;99.90
12025;DHT22;6073;53.230;10.444;2023-05-07T10:18:46;12.40;99.90
12025;DHT22;6073;53.230;10.444;2023-05-07T10:21:17;12.40;99.90
12025;DHT22;6073;53.230;10.444;2023-05-07T10:23:49;12.40;99.90
12025;DHT22;6073;53.230;10.444;2023-05-07T10:26:15;12.50;99.90
12025;DHT22;6073;53.230;10.444;2023-05-07T10:28:46;12.50;99.90
12025;DHT22;6073;53.230;10.444;2023-05-07T10:34:21;12.50;99.90
12025;DHT22;6073;53.230;10.444;2023-05-07T10:36:49;12.50;99.90
12025;DHT22;6073;53.230;10.444;2023-05-07T10:39:15;12.50;99.90
12025;DHT22;6073;53.230;10.444;2023-05-07T10:41:41;12.60;99.90
12025;DHT22;6073;53.230;10.444;2023-05-07T10:44:07;12.60;99.90
12025;DHT22;6073;53.230;10.444;2023-05-07T10:46:32;12.70;99.90
12025;DHT22;6073;53.230;10.444;2023-05-07T10:51:26;12.50;99.90
12025;DHT22;6073;53.230;10.444;2023-05-07T10:56:40;12.70;99.90
12025;DHT22;6073;53.230;10.444;2023-05-07T11:02:00;12.90;99.90
12025;DHT22;6073;53.230;10.444;2023-05-07T11:04:31;13.00;99.90
12025;DHT22;6073;53.230;10.444;2023-05-07T11:09:54;13.10;99.90
12025;DHT22;6073;53.230;10.444;2023-05-07T11:15:09;13.30;99.90
12025;DHT22;6073;53.230;10.444;2023-05-07T11:17:55;13.30;99.90
12025;DHT22;6073;53.230;10.444;2023-05-07T11:20:21;13.40;99.90
12025;DHT22;6073;53.230;10.444;2023-05-07T11:23:06;13.60;99.90
12025;DHT22;6073;53.230;10.444;2023-05-07T11:25:32;13.70;99.90
12025;DHT22;6073;53.230;10.444;2023-05-07T11:28:05;13.90;99.90
12025;DHT22;6073;53.230;10.444;2023-05-07T11:30:31;14.10;99.90
12025;DHT22;6073;53.230;10.444;2023-05-07T11:32:57;14.40;99.90
12025;DHT22;6073;53.230;10.444;2023-05-07T11:35:23;14.40;99.90
12025;DHT22;6073;53.230;10.444;2023-05-07T11:37:49;14.40;99.90
12025;DHT22;6073;53.230;10.444;2023-05-07T11:40:15;14.60;99.90
12025;DHT22;6073;53.230;10.444;2023-05-07T11:42:41;14.60;99.90
12025;DHT22;6073;53.230;10.444;2023-05-07T11:45:08;14.70;99.90
12025;DHT22;6073;53.230;10.444;2023-05-07T11:47:34;14.70;99.90
12025;DHT22;6073;53.230;10.444;2023-05-07T11:50:07;14.90;99.90
12025;DHT22;6073;53.230;10.444;2023-05-07T11:52:34;14.80;99.90
12025;DHT22;6073;53.230;10.444;2023-05-07T11:55:03;14.90;99.90
12025;DHT22;6073;53.230;10.444;2023-05-07T11:57:29;15.10;99.90
12025;DHT22;6073;53.230;10.444;2023-05-07T11:59:59;15.00;99.90
12025;DHT22;6073;53.230;10.444;2023-05-07T12:02:27;14.80;99.90
12025;DHT22;6073;53.230;10.444;2023-05-07T12:04:54;14.60;99.90
12025;DHT22;6073;53.230;10.444;2023-05-07T12:07:20;14.70;99.90
12025;DHT22;6073;53.230;10.444;2023-05-07T12:09:46;14.90;99.90
12025;DHT22;6073;53.230;10.444;2023-05-07T12:12:12;14.80;99.90
12025;DHT22;6073;53.230;10.444;2023-05-07T12:14:41;14.70;99.90
12025;DHT22;6073;53.230;10.444;2023-05-07T12:17:09;14.70;99.90
12025;DHT22;6073;53.230;10.444;2023-05-07T12:19:36;14.70;99.90
12025;DHT22;6073;53.230;10.444;2023-05-07T12:22:05;14.60;99.90
12025;DHT22;6073;53.230;10.444;2023-05-07T12:24:49;14.80;99.90
12025;DHT22;6073;53.230;10.444;2023-05-07T12:27:16;15.30;99.90
12025;DHT22;6073;53.230;10.444;2023-05-07T12:29:47;15.70;99.90
12025;DHT22;6073;53.230;10.444;2023-05-07T12:32:17;16.20;99.90
12025;DHT22;6073;53.230;10.444;2023-05-07T12:34:43;16.30;99.90
12025;DHT22;6073;53.230;10.444;2023-05-07T12:37:09;16.20;99.90
12025;DHT22;6073;53.230;10.444;2023-05-07T12:39:35;16.20;99.90
12025;DHT22;6073;53.230;10.444;2023-05-07T12:42:01;16.40;99.90
12025;DHT22;6073;53.230;10.444;2023-05-07T12:44:33;16.50;99.90
12025;DHT22;6073;53.230;10.444;2023-05-07T12:47:02;16.70;99.90
12025;DHT22;6073;53.230;10.444;2023-05-07T12:49:28;17.00;99.90
12025;DHT22;6073;53.230;10.444;2023-05-07T12:51:54;17.10;99.90
12025;DHT22;6073;53.230;10.444;2023-05-07T12:54:34;16.90;99.90
12025;DHT22;6073;53.230;10.444;2023-05-07T12:57:05;16.90;99.90
12025;DHT22;6073;53.230;10.444;2023-05-07T12:59:41;16.80;99.90
12025;DHT22;6073;53.230;10.444;2023-05-07T13:02:08;16.90;99.90
12025;DHT22;6073;53.230;10.444;2023-05-07T13:04:34;17.00;99.90
12025;DHT22;6073;53.230;10.444;2023-05-07T13:07:00;16.90;99.90
12025;DHT22;6073;53.230;10.444;2023-05-07T13:09:26;16.80;99.90
12025;DHT22;6073;53.230;10.444;2023-05-07T13:11:51;16.80;99.90
12025;DHT22;6073;53.230;10.444;2023-05-07T13:14:17;16.90;99.90
12025;DHT22;6073;53.230;10.444;2023-05-07T13:16:43;16.80;99.90
12025;DHT22;6073;53.230;10.444;2023-05-07T13:19:08;16.70;99.90
12025;DHT22;6073;53.230;10.444;2023-05-07T13:21:34;16.90;99.90
12025;DHT22;6073;53.230;10.444;2023-05-07T13:23:59;16.90;99.90
12025;DHT22;6073;53.230;10.444;2023-05-07T13:26:25;17.00;99.90
12025;DHT22;6073;53.230;10.444;2023-05-07T13:28:52;17.20;99.90
12025;DHT22;6073;53.230;10.444;2023-05-07T13:31:17;17.40;99.90
12025;DHT22;6073;53.230;10.444;2023-05-07T13:33:43;17.30;99.90
12025;DHT22;6073;53.230;10.444;2023-05-07T13:36:09;17.40;99.90
12025;DHT22;6073;53.230;10.444;2023-05-07T13:38:34;17.20;99.90
12025;DHT22;6073;53.230;10.444;2023-05-07T13:41:00;17.00;99.90
12025;DHT22;6073;53.230;10.444;2023-05-07T13:43:26;17.10;99.90
12025;DHT22;6073;53.230;10.444;2023-05-07T13:45:51;16.90;99.90
12025;DHT22;6073;53.230;10.444;2023-05-07T13:48:17;16.80;99.90
12025;DHT22;6073;53.230;10.444;2023-05-07T13:50:43;16.80;99.90
12025;DHT22;6073;53.230;10.444;2023-05-07T13:53:08;16.80;99.90
12025;DHT22;6073;53.230;10.444;2023-05-07T13:55:34;16.80;99.90
12025;DHT22;6073;53.230;10.444;2023-05-07T13:58:01;16.90;99.90
12025;DHT22;6073;53.230;10.444;2023-05-07T14:00:27;17.00;99.90
12025;DHT22;6073;53.230;10.444;2023-05-07T14:02:54;17.30;99.90
12025;DHT22;6073;53.230;10.444;2023-05-07T14:05:20;17.70;99.90
12025;DHT22;6073;53.230;10.444;2023-05-07T14:07:46;17.70;99.90
12025;DHT22;6073;53.230;10.444;2023-05-07T14:10:12;17.60;99.90
12025;DHT22;6073;53.230;10.444;2023-05-07T14:12:38;17.50;99.90
12025;DHT22;6073;53.230;10.444;2023-05-07T14:15:04;17.50;99.90
12025;DHT22;6073;53.230;10.444;2023-05-07T14:17:30;17.60;99.90
12025;DHT22;6073;53.230;10.444;2023-05-07T14:19:55;17.50;99.90
12025;DHT22;6073;53.230;10.444;2023-05-07T14:22:22;17.90;99.90
12025;DHT22;6073;53.230;10.444;2023-05-07T14:24:48;18.20;99.90
12025;DHT22;6073;53.230;10.444;2023-05-07T14:27:14;18.40;99.90
12025;DHT22;6073;53.230;10.444;2023-05-07T14:29:40;18.30;99.90
12025;DHT22;6073;53.230;10.444;2023-05-07T14:32:06;18.20;99.90
12025;DHT22;6073;53.230;10.444;2023-05-07T14:34:32;18.20;99.90
12025;DHT22;6073;53.230;10.444;2023-05-07T14:36:59;18.20;99.90
12025;DHT22;6073;53.230;10.444;2023-05-07T14:39:25;18.30;99.90
12025;DHT22;6073;53.230;10.444;2023-05-07T14:41:51;18.40;99.90
12025;DHT22;6073;53.230;10.444;2023-05-07T14:44:17;18.30;99.90
12025;DHT22;6073;53.230;10.444;2023-05-07T14:46:42;18.30;99.90
12025;DHT22;6073;53.230;10.444;2023-05-07T14:49:08;18.30;99.90
12025;DHT22;6073;53.230;10.444;2023-05-07T14:51:41;18.30;99.90
12025;DHT22;6073;53.230;10.444;2023-05-07T14:54:07;18.30;99.90
12025;DHT22;6073;53.230;10.444;2023-05-07T14:56:34;18.30;99.90
12025;DHT22;6073;53.230;10.444;2023-05-07T14:59:00;18.30;99.90
12025;DHT22;6073;53.230;10.444;2023-05-07T15:01:26;18.40;99.90
12025;DHT22;6073;53.230;10.444;2023-05-07T15:03:51;18.40;99.90
12025;DHT22;6073;53.230;10.444;2023-05-07T15:06:17;18.50;99.90
12025;DHT22;6073;53.230;10.444;2023-05-07T15:08:42;18.40;99.90
12025;DHT22;6073;53.230;10.444;2023-05-07T15:11:08;18.30;99.90
12025;DHT22;6073;53.230;10.444;2023-05-07T15:13:33;18.10;99.90
12025;DHT22;6073;53.230;10.444;2023-05-07T15:15:59;17.90;99.90
12025;DHT22;6073;53.230;10.444;2023-05-07T15:18:25;17.90;99.90
12025;DHT22;6073;53.230;10.444;2023-05-07T15:20:51;17.90;99.90
12025;DHT22;6073;53.230;10.444;2023-05-07T15:23:16;17.90;99.90
12025;DHT22;6073;53.230;10.444;2023-05-07T15:25:42;18.00;99.90
12025;DHT22;6073;53.230;10.444;2023-05-07T15:28:08;17.80;99.90
12025;DHT22;6073;53.230;10.444;2023-05-07T15:30:33;17.70;99.90
12025;DHT22;6073;53.230;10.444;2023-05-07T15:33:00;17.60;99.90
12025;DHT22;6073;53.230;10.444;2023-05-07T15:35:26;17.60;99.90
12025;DHT22;6073;53.230;10.444;2023-05-07T15:37:51;17.50;99.90
12025;DHT22;6073;53.230;10.444;2023-05-07T15:40:20;17.30;99.90
12025;DHT22;6073;53.230;10.444;2023-05-07T15:42:46;17.10;99.90
12025;DHT22;6073;53.230;10.444;2023-05-07T15:45:12;17.10;99.90
12025;DHT22;6073;53.230;10.444;2023-05-07T15:47:37;17.00;99.90
12025;DHT22;6073;53.230;10.444;2023-05-07T15:50:03;16.80;99.90
12025;DHT22;6073;53.230;10.444;2023-05-07T15:52:29;16.70;99.90